Time;durP1;ratioP1;P1;durP2;ratioP2;P2;SDS_P1;SDS_P2;PMS_P1;PMS_P2;Temp;Humidity;BMP_temperature;BMP_pressure;BME280_temperature;BME280_humidity;BME280_pressure;Samples;Min_cycle;Max_cycle;Signal;HPM_P1;HPM_P2
2022/11/30 05:22:49;;;;;;;4.47;3.45;;;;;;;-0.37;100.00;101028.98;1842529;75;23114;-66
2022/11/30 05:25:17;;;;;;;3.22;2.92;;;;;;;-0.18;100.00;101037.17;1847138;75;21526;-66
2022/11/30 05:27:44;;;;;;;;;;;;;;;-0.16;100.00;101039.38;1838680;76;21856;-66
2022/11/30 05:30:12;;;;;;;5.17;3.10;;;;;;;-0.27;100.00;101040.41;1848764;75;20450;-66
2022/11/30 05:32:40;;;;;;;5.78;3.60;;;;;;;-0.28;100.00;101042.12;1848469;75;21419;-65
2022/11/30 05:35:08;;;;;;;4.65;2.90;;;;;;;-0.26;100.00;101039.16;1846004;77;21514;-67
2022/11/30 05:37:35;;;;;;;4.10;3.30;;;;;;;-0.27;100.00;101042.56;1838018;76;21579;-68
2022/11/30 05:40:01;;;;;;;4.40;3.37;;;;;;;-0.23;100.00;101047.00;1849881;75;21592;-66
2022/11/30 05:42:28;;;;;;;3.50;3.00;;;;;;;-0.23;100.00;101031.88;1835837;76;21394;-67
2022/11/30 05:44:55;;;;;;;4.20;2.75;;;;;;;-0.20;100.00;101040.59;1807907;77;20983;-67
2022/11/30 05:47:23;;;;;;;3.22;2.92;;;;;;;-0.21;100.00;101045.72;1796164;77;21475;-67
2022/11/30 05:49:50;;;;;;;4.70;3.02;;;;;;;-0.22;100.00;101042.27;1761942;78;21700;-67
2022/11/30 05:52:17;;;;;;;4.37;3.02;;;;;;;-0.23;100.00;101038.34;1807509;78;21839;-67
2022/11/30 05:54:43;;;;;;;4.50;3.20;;;;;;;-0.21;100.00;101034.98;1807595;77;21397;-66
2022/11/30 05:57:10;;;;;;;6.92;3.47;;;;;;;-0.17;100.00;101041.49;1807115;77;20976;-67
2022/11/30 05:59:36;;;;;;;5.33;2.92;;;;;;;-0.18;100.00;101044.50;1763592;78;21520;-67
2022/11/30 06:02:04;;;;;;;5.22;3.37;;;;;;;-0.16;100.00;101046.70;1787993;78;21483;-66
2022/11/30 06:04:33;;;;;;;4.17;3.00;;;;;;;-0.16;100.00;101045.41;1805098;77;21791;-66
2022/11/30 06:06:59;;;;;;;5.42;3.30;;;;;;;-0.18;100.00;101047.09;1771704;79;21425;-67
2022/11/30 06:09:26;;;;;;;4.42;3.35;;;;;;;-0.18;100.00;101051.39;1771217;80;21446;-66
2022/11/30 06:11:52;;;;;;;3.30;2.77;;;;;;;-0.21;100.00;101050.88;1778235;80;21501;-68
2022/11/30 06:14:20;;;;;;;;;;;;;;;-0.21;100.00;101053.47;1779472;78;21887;-69
2022/11/30 06:16:47;;;;;;;3.40;3.03;;;;;;;-0.28;100.00;101047.73;1772954;80;21797;-69
2022/11/30 06:19:14;;;;;;;6.70;3.27;;;;;;;-0.24;100.00;101048.25;1778395;78;20996;-68
2022/11/30 06:21:42;;;;;;;4.87;3.33;;;;;;;-0.23;100.00;101048.30;1774558;78;21458;-68
2022/11/30 06:24:10;;;;;;;3.72;2.87;;;;;;;-0.18;100.00;101059.16;1807277;77;21543;-68
2022/11/30 06:26:37;;;;;;;6.28;2.75;;;;;;;-0.17;100.00;101062.17;1756086;80;21690;-69
2022/11/30 06:29:04;;;;;;;4.25;2.77;;;;;;;-0.17;100.00;101059.20;1773650;78;22117;-63
2022/11/30 06:57:45;;;;;;;4.97;3.35;;;;;;;-1.52;100.00;101089.19;1837835;74;26775;-64
2022/11/30 07:00:14;;;;;;;4.53;3.02;;;;;;;-1.35;100.00;101101.30;1834207;76;21435;-68
2022/11/30 07:02:40;;;;;;;4.00;2.87;;;;;;;-1.26;100.00;101099.84;1832523;75;21922;-69
2022/11/30 07:05:07;;;;;;;5.97;3.40;;;;;;;-1.21;100.00;101102.13;1839765;75;21308;-69
2022/11/30 07:07:34;;;;;;;4.78;3.37;;;;;;;-1.13;100.00;101095.02;1833898;77;21518;-66
2022/11/30 07:10:00;;;;;;;8.45;3.50;;;;;;;-1.05;100.00;101090.96;1824233;76;21080;-68
2022/11/30 07:12:28;;;;;;;7.50;4.40;;;;;;;-1.04;100.00;101089.69;1798681;75;20999;-70
2022/11/30 07:14:55;;;;;;;4.78;3.15;;;;;;;-0.95;100.00;101098.11;1817595;76;21395;-69
2022/11/30 07:17:22;;;;;;;3.95;3.33;;;;;;;-0.87;100.00;101099.61;1839687;76;21013;-68
2022/11/30 07:19:48;;;;;;;6.20;3.08;;;;;;;-0.81;100.00;101094.59;1797825;76;21554;-69
2022/11/30 07:22:14;;;;;;;4.80;3.70;;;;;;;-0.73;100.00;101103.45;1794046;77;21534;-66
2022/11/30 07:27:26;;;;;;;4.87;3.27;;;;;;;-0.68;100.00;101104.45;1811059;76;21893;-69
2022/11/30 07:29:52;;;;;;;5.92;4.00;;;;;;;-0.65;100.00;101102.36;1802432;77;21462;-68
2022/11/30 07:32:18;;;;;;;3.65;3.22;;;;;;;-0.61;100.00;101098.58;1801277;76;21510;-65
2022/11/30 07:34:45;;;;;;;5.58;3.27;;;;;;;-0.55;100.00;101099.59;1832947;75;21642;-69
2022/11/30 07:37:12;;;;;;;7.97;3.33;;;;;;;-0.48;100.00;101098.48;1789801;77;21649;-71
2022/11/30 07:39:38;;;;;;;4.10;3.45;;;;;;;-0.42;100.00;101099.92;1808090;77;21771;-68
2022/11/30 07:42:05;;;;;;;4.83;3.17;;;;;;;-0.40;100.00;101105.14;1797329;77;21384;-68
2022/11/30 07:44:31;;;;;;;4.58;3.35;;;;;;;-0.37;100.00;101101.78;1832676;75;21220;-67
2022/11/30 07:46:59;;;;;;;5.05;3.45;;;;;;;-0.36;100.00;101109.97;1822804;77;21586;-68
2022/11/30 07:49:26;;;;;;;5.00;3.60;;;;;;;-0.34;100.00;101105.31;1813289;77;21662;-65
2022/11/30 07:51:53;;;;;;;4.97;3.83;;;;;;;-0.31;100.00;101100.63;1804283;77;21790;-65
2022/11/30 07:54:19;;;;;;;4.92;3.67;;;;;;;-0.29;100.00;101104.98;1811342;77;21474;-65
2022/11/30 07:56:46;;;;;;;4.78;3.95;;;;;;;-0.28;100.00;101101.58;1799101;75;21086;-68
2022/11/30 07:59:13;;;;;;;6.20;3.57;;;;;;;-0.27;100.00;101101.16;1804560;77;21552;-65
2022/11/30 08:01:39;;;;;;;6.85;4.12;;;;;;;-0.29;100.00;101101.54;1812240;75;21836;-65
2022/11/30 08:04:06;;;;;;;7.58;3.67;;;;;;;-0.24;100.00;101105.13;1829641;75;21517;-65
2022/11/30 08:06:33;;;;;;;6.47;4.20;;;;;;;-0.18;100.00;101103.11;1828346;75;21498;-65
2022/11/30 08:09:01;;;;;;;5.37;3.70;;;;;;;-0.17;100.00;101093.20;1793243;75;21480;-64
2022/11/30 08:11:29;;;;;;;5.22;3.83;;;;;;;-0.18;100.00;101100.09;1823742;75;21420;-64
2022/11/30 08:13:56;;;;;;;6.03;4.25;;;;;;;-0.16;100.00;101102.29;1820689;76;21408;-65
2022/11/30 08:16:25;;;;;;;6.90;4.10;;;;;;;-0.14;100.00;101094.58;1835510;75;21772;-64
2022/11/30 08:18:51;;;;;;;6.50;4.20;;;;;;;-0.13;100.00;101095.02;1822073;75;21395;-63
2022/11/30 08:21:19;;;;;;;7.40;4.28;;;;;;;-0.10;100.00;101095.10;1812801;76;21526;-64
2022/11/30 08:23:49;;;;;;;4.72;4.25;;;;;;;-0.13;100.00;101095.91;1827342;75;21919;-63
2022/11/30 08:26:22;;;;;;;6.47;4.12;;;;;;;-0.09;100.00;101094.28;1833275;76;21615;-63
2022/11/30 08:28:50;;;;;;;5.65;4.20;;;;;;;-0.15;100.00;101087.25;1826857;75;21743;-63
2022/11/30 08:31:19;;;;;;;;;;;;;;;-0.18;100.00;101081.99;1820304;76;21631;-62
2022/11/30 08:33:45;;;;;;;4.35;3.47;;;;;;;-0.28;100.00;101083.48;1828588;75;20238;-62
2022/11/30 08:36:16;;;;;;;4.70;3.67;;;;;;;-0.26;100.00;101073.19;1833045;75;21489;-63
2022/11/30 08:38:43;;;;;;;4.95;3.67;;;;;;;-0.21;100.00;101076.73;1825981;76;21491;-63
2022/11/30 09:02:57;;;;;;;4.45;3.58;;;;;;;-1.52;100.00;101087.91;1851734;74;23222;-61
2022/11/30 09:05:24;;;;;;;4.58;3.35;;;;;;;-1.23;100.00;101098.63;1826990;75;21493;-61
2022/11/30 09:07:50;;;;;;;5.45;4.08;;;;;;;-1.09;100.00;101094.27;1824690;75;21785;-61
2022/11/30 09:10:17;;;;;;;5.87;4.35;;;;;;;-1.02;100.00;101092.31;1819944;75;21408;-61
2022/11/30 09:12:44;;;;;;;5.70;4.47;;;;;;;-0.96;100.00;101087.34;1834323;75;21056;-62
2022/11/30 09:15:11;;;;;;;10.82;4.83;;;;;;;-0.88;100.00;101095.30;1837362;75;22170;-60
2022/11/30 09:17:37;;;;;;;5.85;4.42;;;;;;;-0.85;100.00;101093.67;1844131;75;21595;-61
2022/11/30 09:20:06;;;;;;;6.85;4.60;;;;;;;-0.79;100.00;101092.53;1836854;75;22198;-61
2022/11/30 09:22:33;;;;;;;5.53;4.75;;;;;;;-0.70;100.00;101086.72;1823445;75;21521;-61
2022/11/30 09:25:00;;;;;;;6.20;5.20;;;;;;;-0.63;100.00;101088.63;1829759;75;21578;-61
2022/11/30 09:27:29;;;;;;;6.80;4.35;;;;;;;-0.57;100.00;101083.17;1833788;75;21670;-61
2022/11/30 09:29:55;;;;;;;5.03;3.98;;;;;;;-0.50;100.00;101077.33;1835552;75;21488;-61
2022/11/30 09:32:22;;;;;;;5.50;4.20;;;;;;;-0.46;100.00;101078.72;1845251;75;21809;-61
2022/11/30 09:34:48;;;;;;;6.85;4.50;;;;;;;-0.42;100.00;101075.38;1831725;75;21603;-61
2022/11/30 09:37:15;;;;;;;6.00;4.72;;;;;;;-0.36;100.00;101084.13;1839997;75;20970;-60
2022/11/30 09:39:43;;;;;;;;;;;;;;;-0.37;100.00;101072.06;1830526;75;21072;-61
2022/11/30 09:42:35;;;;;;;9.38;4.90;;;;;;;-0.51;100.00;101067.81;1847702;75;20440;-61
2022/11/30 09:45:16;;;;;;;6.70;4.85;;;;;;;-0.50;100.00;101075.61;1837816;75;22163;-60
2022/11/30 09:48:16;;;;;;;8.65;4.62;;;;;;;-0.45;100.00;101070.58;1842050;75;21395;-61
2022/11/30 09:50:43;;;;;;;7.28;4.67;;;;;;;-0.47;100.00;101068.34;1826153;77;21438;-62
2022/11/30 09:53:28;;;;;;;5.25;4.35;;;;;;;-0.52;100.00;101057.91;1784655;77;21470;-60
2022/11/30 09:55:55;;;;;;;7.80;4.92;;;;;;;-0.47;100.00;101052.84;1766225;79;21631;-60
2022/11/30 09:58:51;;;;;;;5.65;4.37;;;;;;;-0.48;100.00;101051.97;1769027;78;21839;-60
2022/11/30 10:01:19;;;;;;;7.35;4.53;;;;;;;-0.45;100.00;101048.61;1798412;78;20981;-62
2022/11/30 10:03:46;;;;;;;6.67;4.47;;;;;;;-0.40;100.00;101041.82;1793492;78;21502;-61
2022/11/30 10:06:39;;;;;;;7.50;4.87;;;;;;;-0.37;100.00;101033.29;1797993;78;21429;-61
2022/11/30 10:09:12;;;;;;;8.28;4.60;;;;;;;-0.33;100.00;101029.50;1792404;78;21626;-62
2022/11/30 10:11:54;;;;;;;6.90;4.80;;;;;;;-0.32;100.00;101031.66;1801718;78;22137;-59
2022/11/30 10:14:32;;;;;;;7.70;4.40;;;;;;;-0.35;100.00;101035.48;1791390;77;21512;-60
2022/11/30 10:17:13;;;;;;;6.05;4.25;;;;;;;-0.40;100.00;101033.67;1791835;78;21517;-62
2022/11/30 10:19:54;;;;;;;7.75;4.78;;;;;;;-0.42;100.00;101029.28;1784663;78;21530;-60
2022/11/30 10:22:47;;;;;;;5.45;4.53;;;;;;;-0.43;100.00;101031.00;1781430;78;21478;-60
2022/11/30 10:25:32;;;;;;;6.40;4.65;;;;;;;-0.44;100.00;101021.91;1772748;78;21826;-61
2022/11/30 10:28:10;;;;;;;7.60;5.35;;;;;;;-0.44;100.00;101021.48;1783659;78;21571;-61
2022/11/30 14:19:18;;;;;;;5.08;3.05;;;;;;;-2.63;100.00;101054.80;1848366;74;23122;-59
2022/11/30 14:21:45;;;;;;;6.12;3.15;;;;;;;-2.41;100.00;101056.36;1830094;75;21426;-60
2022/11/30 14:24:20;;;;;;;4.55;3.60;;;;;;;-2.25;100.00;101068.91;1835986;75;21853;-68
2022/11/30 14:26:49;;;;;;;7.85;4.00;;;;;;;-2.13;100.00;101063.27;1833361;75;21406;-73
2022/11/30 14:29:28;;;;;;;5.78;4.03;;;;;;;-2.05;100.00;101065.69;1831980;75;21563;-68
2022/11/30 14:32:17;;;;;;;7.45;4.25;;;;;;;-2.01;100.00;101070.11;1846510;75;21162;-67
2022/11/30 14:34:49;;;;;;;8.28;5.17;;;;;;;-1.90;100.00;101069.16;1845905;75;21484;-70
2022/11/30 14:37:32;;;;;;;6.37;4.12;;;;;;;-1.84;100.00;101067.18;1800202;77;21878;-67
2022/11/30 14:40:04;;;;;;;4.75;3.85;;;;;;;-1.80;100.00;101068.59;1837315;75;21630;-72
2022/11/30 14:42:32;;;;;;;6.75;4.35;;;;;;;-1.74;100.00;101066.61;1837208;75;21559;-72
2022/11/30 14:48:09;;;;;;;4.47;3.72;;;;;;;-1.67;100.00;101068.98;1711789;82;20437;-70
2022/11/30 14:50:35;;;;;;;7.37;4.50;;;;;;;-1.64;100.00;101068.66;1685658;83;21911;-70
2022/11/30 14:53:08;;;;;;;5.60;4.17;;;;;;;-1.60;100.00;101073.07;1691896;83;21514;-70
2022/11/30 14:55:54;;;;;;;7.87;5.28;;;;;;;-1.57;100.00;101062.82;1708003;82;21427;-69
2022/11/30 14:58:53;;;;;;;9.23;5.53;;;;;;;-1.51;100.00;101073.73;1688473;84;21609;-69
2022/11/30 15:01:26;;;;;;;11.73;4.92;;;;;;;-1.45;100.00;101074.33;1720086;81;20986;-69
2022/11/30 15:03:56;;;;;;;7.65;4.72;;;;;;;-1.43;100.00;101076.14;1754706;80;21904;-68
2022/11/30 15:06:31;;;;;;;8.58;5.15;;;;;;;-1.35;100.00;101073.78;1760106;80;21497;-69
2022/11/30 15:08:59;;;;;;;7.45;5.45;;;;;;;-1.31;100.00;101076.03;1754157;80;21530;-69
2022/11/30 15:11:26;;;;;;;8.03;4.83;;;;;;;-1.27;100.00;101083.89;1748854;80;21482;-69
2022/11/30 15:13:56;;;;;;;12.05;5.42;;;;;;;-1.23;100.00;101075.39;1689447;83;21483;-68
2022/11/30 15:16:27;;;;;;;8.80;5.08;;;;;;;-1.18;100.00;101084.58;1692764;83;21602;-68
2022/11/30 15:18:56;;;;;;;6.72;5.00;;;;;;;-1.12;100.00;101084.73;1705381;82;21540;-69
2022/11/30 15:21:26;;;;;;;9.10;5.92;;;;;;;-1.10;100.00;101084.36;1689849;83;21564;-69
2022/11/30 15:23:58;;;;;;;9.23;5.47;;;;;;;-1.06;100.00;101085.33;1697231;82;21589;-70
2022/11/30 15:26:56;;;;;;;8.20;5.42;;;;;;;-0.99;100.00;101089.83;1752192;80;21600;-69
2022/11/30 15:29:33;;;;;;;9.53;5.87;;;;;;;-0.95;100.00;101087.78;1760041;80;21704;-69
2022/11/30 15:32:03;;;;;;;7.83;4.83;;;;;;;-0.92;100.00;101087.87;1754212;79;21613;-70
2022/11/30 15:34:41;;;;;;;8.45;5.65;;;;;;;-0.89;100.00;101084.49;1747259;80;21402;-70
2022/11/30 15:37:08;;;;;;;8.08;5.30;;;;;;;-0.87;100.00;101088.85;1758595;80;21493;-69
2022/11/30 15:39:34;;;;;;;8.70;5.53;;;;;;;-0.86;100.00;101084.59;1751356;80;21536;-70
2022/11/30 15:42:03;;;;;;;13.03;6.15;;;;;;;-0.83;100.00;101085.94;1755805;80;21976;-69
2022/11/30 15:44:40;;;;;;;11.00;5.95;;;;;;;-0.81;100.00;101090.72;1755622;80;21525;-69
2022/11/30 15:47:24;;;;;;;10.40;5.78;;;;;;;-0.81;100.00;101089.44;1748663;79;26802;-69
2022/11/30 15:49:53;;;;;;;8.78;5.90;;;;;;;-0.83;100.00;101086.84;1748868;79;21461;-70
2022/11/30 15:52:25;;;;;;;8.00;5.75;;;;;;;-0.84;100.00;101079.04;1741889;79;21483;-69
2022/11/30 15:54:55;;;;;;;10.82;6.30;;;;;;;-0.88;100.00;101084.54;1748441;81;21804;-69
2022/11/30 15:57:24;;;;;;;8.30;6.20;;;;;;;-0.92;100.00;101086.59;1741901;81;21069;-70
2022/11/30 16:00:16;;;;;;;11.33;5.95;;;;;;;-0.92;100.00;101082.71;1700186;82;21488;-69
2022/11/30 16:02:42;;;;;;;6.92;4.60;;;;;;;-0.95;100.00;101080.03;1690926;83;21417;-69
2022/11/30 16:05:16;;;;;;;9.95;6.10;;;;;;;-0.97;100.00;101086.87;1682704;83;21539;-69
2022/11/30 16:07:55;;;;;;;14.30;6.20;;;;;;;-0.97;100.00;101076.54;1693626;82;21804;-70
2022/11/30 16:10:30;;;;;;;10.93;6.05;;;;;;;-0.96;100.00;101079.98;1692821;84;21615;-69
2022/11/30 16:12:56;;;;;;;10.40;5.45;;;;;;;-0.99;100.00;101074.34;1690741;82;21441;-68
2022/11/30 16:15:29;;;;;;;10.15;5.75;;;;;;;-1.04;100.00;101081.08;1689469;82;21527;-70
2022/11/30 16:18:13;;;;;;;10.48;6.20;;;;;;;-1.03;100.00;101082.41;1690283;84;21445;-69
2022/11/30 16:20:42;;;;;;;11.25;5.70;;;;;;;-1.04;100.00;101081.94;1686610;82;21898;-69
2022/11/30 16:23:14;;;;;;;9.55;6.25;;;;;;;-1.03;100.00;101085.42;1688450;82;21028;-69
2022/11/30 16:25:42;;;;;;;7.10;5.33;;;;;;;-1.01;100.00;101082.46;1681398;84;20977;-72
2022/11/30 16:28:10;;;;;;;8.30;5.50;;;;;;;-1.01;100.00;101088.92;1692403;84;21603;-69
2022/11/30 16:30:37;;;;;;;11.15;6.72;;;;;;;-1.03;100.00;101085.00;1685437;84;20972;-68
2022/11/30 16:33:03;;;;;;;10.63;5.87;;;;;;;-1.02;100.00;101093.61;1689544;82;21876;-68
2022/11/30 16:35:47;;;;;;;9.68;5.95;;;;;;;-1.04;100.00;101087.53;1686505;84;21515;-67
2022/11/30 16:38:13;;;;;;;7.55;6.12;;;;;;;-1.01;100.00;101091.50;1684939;84;21532;-68
2022/11/30 16:40:40;;;;;;;11.40;7.28;;;;;;;-0.99;100.00;101091.98;1683201;84;21555;-69
2022/11/30 16:43:11;;;;;;;10.43;5.80;;;;;;;-1.03;100.00;101088.00;1690357;83;21539;-68
2022/11/30 16:45:38;;;;;;;12.50;6.85;;;;;;;-1.08;100.00;101087.86;1689913;82;21830;-68
2022/11/30 16:48:05;;;;;;;12.63;7.03;;;;;;;-1.08;100.00;101085.28;1686558;84;21488;-70
2022/11/30 16:50:33;;;;;;;12.50;6.95;;;;;;;-1.07;100.00;101084.88;1692323;84;21063;-70
2022/11/30 16:53:03;;;;;;;12.75;7.00;;;;;;;-1.08;100.00;101083.98;1692350;82;21603;-70
2022/11/30 16:55:33;;;;;;;7.87;6.05;;;;;;;-1.07;100.00;101083.59;1685278;82;21000;-68
2022/11/30 16:58:00;;;;;;;12.63;6.72;;;;;;;-1.07;100.00;101081.88;1695609;82;22280;-73
2022/11/30 17:00:27;;;;;;;10.05;6.45;;;;;;;-1.06;100.00;101079.73;1693963;84;21381;-72
2022/11/30 17:03:04;;;;;;;9.45;6.12;;;;;;;-1.04;100.00;101078.06;1687226;82;21520;-72
2022/11/30 17:05:31;;;;;;;10.05;5.75;;;;;;;-1.01;100.00;101076.01;1687610;84;21465;-70
2022/11/30 17:07:58;;;;;;;10.15;6.28;;;;;;;-1.00;100.00;101075.16;1671083;84;21422;-71
2022/11/30 17:10:24;;;;;;;15.00;6.85;;;;;;;-0.96;100.00;101076.12;1694454;82;21547;-69
2022/11/30 17:12:51;;;;;;;10.65;6.83;;;;;;;-0.96;100.00;101073.53;1688936;82;21450;-69
2022/11/30 17:15:21;;;;;;;7.60;5.17;;;;;;;-0.96;100.00;101073.14;1687064;84;20968;-68
2022/11/30 17:17:48;;;;;;;8.85;5.55;;;;;;;-0.95;100.00;101071.42;1678723;82;21673;-69
2022/11/30 17:20:16;;;;;;;8.90;5.33;;;;;;;-0.93;100.00;101069.75;1692892;83;21536;-69
2022/11/30 17:22:43;;;;;;;10.63;6.17;;;;;;;-0.95;100.00;101069.70;1663554;82;21843;-68
2022/11/30 17:25:16;;;;;;;8.00;5.50;;;;;;;-0.95;100.00;101067.55;1689397;82;21008;-68
2022/11/30 17:27:47;;;;;;;10.53;6.03;;;;;;;-0.95;100.00;101072.72;1686762;82;21663;-70
2022/11/30 17:30:15;;;;;;;8.93;6.03;;;;;;;-0.95;100.00;101067.13;1692216;82;21568;-68
2022/11/30 17:32:41;;;;;;;9.43;5.72;;;;;;;-0.93;100.00;101065.88;1694967;82;21495;-67
2022/11/30 17:35:09;;;;;;;6.85;5.55;;;;;;;-0.94;100.00;101072.77;1687470;84;21816;-69
2022/11/30 17:37:35;;;;;;;10.18;6.47;;;;;;;-0.94;100.00;101067.59;1695269;84;21464;-68
2022/11/30 17:40:03;;;;;;;12.03;5.63;;;;;;;-0.94;100.00;101070.18;1685519;84;20999;-67
2022/11/30 17:42:30;;;;;;;8.78;6.17;;;;;;;-0.94;100.00;101065.41;1688592;82;21481;-66
2022/11/30 17:44:58;;;;;;;8.88;5.55;;;;;;;-0.94;100.00;101065.41;1685110;82;21438;-66
2022/11/30 17:47:24;;;;;;;7.33;5.45;;;;;;;-0.97;100.00;101058.47;1692813;82;21835;-66
2022/11/30 17:49:51;;;;;;;10.65;5.42;;;;;;;-0.94;100.00;101056.38;1698980;82;21468;-66
2022/11/30 17:52:18;;;;;;;7.30;5.85;;;;;;;-0.94;100.00;101054.69;1737555;80;21577;-66
2022/11/30 17:54:44;;;;;;;7.25;5.62;;;;;;;-0.91;100.00;101052.59;1762243;79;21703;-66
2022/11/30 17:57:11;;;;;;;9.90;5.42;;;;;;;-0.87;100.00;101057.86;1716203;81;21034;-66
2022/11/30 17:59:38;;;;;;;10.13;6.37;;;;;;;-0.84;100.00;101055.38;1693443;83;21929;-66
2022/11/30 18:02:10;;;;;;;9.43;6.22;;;;;;;-0.83;100.00;101050.68;1688567;82;21611;-66
2022/11/30 18:04:37;;;;;;;10.53;6.35;;;;;;;-0.82;100.00;101049.83;1753219;80;21538;-67
2022/11/30 18:07:03;;;;;;;8.60;5.20;;;;;;;-0.81;100.00;101046.42;1760988;80;21487;-67
2022/11/30 18:09:32;;;;;;;11.33;5.97;;;;;;;-0.81;100.00;101047.72;1761258;80;21010;-67
